Home > Products > Valid Products > TAF

000
FTUS42 KGSP 202300
TAFAVL
TAF
KAVL 202337Z 2100/2124 VRB04KT P6SM SKC
     FM212300 20004KT P6SM BKN060=



000
FTUS42 KGSP 202300
TAFCLT
TAF
KCLT 202337Z 2100/2124 04009KT P6SM SCT060 SCT250
     FM210600 03006KT P6SM SCT250=



000
FTUS42 KGSP 202300
TAFGSP
TAF
KGSP 202337Z 2100/2124 06007KT P6SM FEW250
     FM211700 09003KT P6SM FEW250
     FM212000 16004KT P6SM FEW250=



000
FTUS42 KGSP 202100 CCA
TAFCLT
TAF COR
KCLT 202101Z 2021/2118 05011G20KT P6SM SCT060 SCT250
     FM202300 03009KT P6SM SCT060 SCT250
     FM210600 03006KT P6SM FEW250=



000
FTUS42 KGSP 202000 AAA
TAFCLT
TAF AMD
KCLT 202058Z 2021/2118 05011G20KT P6SM SCT060 SCT250
     FM202300 03009KT P6SM SCT060 SCT250
     FM211300 03005KT P6SM FEW250=



000
FTUS42 KGSP 201700
TAFGSP
TAF
KGSP 201731Z 2018/2118 04012KT P6SM SCT230
     FM202300 04008KT P6SM FEW240
     FM210600 02005KT P6SM FEW250
     FM211700 09003KT P6SM FEW240=



000
FTUS42 KGSP 201700
TAFAVL
TAF
KAVL 201731Z 2018/2118 06008KT P6SM FEW250
     FM210100 10004KT P6SM FEW250
     FM210300 04003KT P6SM FEW250
     FM211200 33004KT P6SM FEW240=



000
FTUS42 KGSP 201700
TAFCLT
TAF
KCLT 201731Z 2018/2118 04013G22KT P6SM FEW060 SCT230
     FM202200 03009KT P6SM FEW250
     FM211300 03005KT P6SM FEW250=



000
FTUS42 KGSP 201400 AAA
TAFGSP
TAF AMD
KGSP 201443Z 2015/2112 03014G25KT P6SM FEW060
     FM201800 03013G21KT P6SM FEW070 SCT250
     FM210100 04007KT P6SM FEW060 SCT250=



000
FTUS42 KGSP 201400 AAA
TAFCLT
TAF AMD
KCLT 201442Z 2015/2112 04012G24KT P6SM FEW150 SCT220
     FM201800 04013G22KT P6SM FEW080 SCT250
     FM210100 03008KT P6SM FEW060 SCT250=



000
FTUS42 KGSP 201100
TAFGSP
TAF
KGSP 201133Z 2012/2112 01009KT P6SM BKN060
     FM201500 03013G21KT P6SM FEW070 SCT250
     FM210100 04007KT P6SM FEW060 SCT250=



000
FTUS42 KGSP 201100
TAFAVL
TAF
KAVL 201133Z 2012/2112 36005KT P6SM FEW080 BKN250
     FM201400 01010KT P6SM SCT250
      TEMPO 2018/2022 16009KT
     FM210100 35005KT P6SM FEW250=



000
FTUS42 KGSP 201100
TAFCLT
TAF
KCLT 201133Z 2012/2112 03010KT P6SM SCT080 BKN200
     FM201600 04013G22KT P6SM FEW080 SCT250
     FM210100 03008KT P6SM FEW060 SCT250=



000
FTUS42 KGSP 200800 AAA
TAFCLT
TAF AMD
KCLT 200857Z 2009/2106 02010KT P6SM BKN070
     FM201600 03013G22KT P6SM SCT070
     FM210200 03008KT P6SM FEW060 SCT250=



000
FTUS42 KGSP 200500
TAFCLT
TAF
KCLT 200539Z 2006/2106 04012G18KT P6SM -RA OVC060
     FM200900 03010G17KT P6SM VCSH OVC070
     FM201100 02010KT P6SM BKN080
     FM201600 03013G22KT P6SM SCT070
     FM210200 03008KT P6SM FEW060 SCT250=



000
FTUS42 KGSP 200500
TAFAVL
TAF
KAVL 200539Z 2006/2106 VRB03KT P6SM SCT060 BKN250
     FM201200 35005KT P6SM FEW060 SCT250
     FM201500 34011KT P6SM FEW080
     FM210200 VRB03KT P6SM FEW250=



000
FTUS42 KGSP 200500
TAFGSP
TAF
KGSP 200539Z 2006/2106 03010KT P6SM OVC050
     FM201600 04012G20KT P6SM FEW060
     FM202300 05008KT P6SM FEW250=



000
FTUS42 KGSP 200400 AAB
TAFCLT
TAF AMD
KCLT 200441Z 2005/2024 03012KT P6SM -RA FEW020 OVC050
     FM200600 02012KT P6SM VCSH OVC050
     FM200900 04012KT P6SM BKN050
     FM202300 03009KT P6SM SCT045=



000
FTUS42 KGSP 200300 AAA
TAFGSP
TAF AMD
KGSP 200348Z 2004/2024 03010KT P6SM VCSH OVC040
     FM200600 03012KT P6SM OVC040
     FM202100 05011KT P6SM SCT250=



000
FTUS42 KGSP 200300 AAA
TAFCLT
TAF AMD
KCLT 200347Z 2004/2024 03012KT 6SM -RA BR FEW020 OVC050
      TEMPO 2004/2006 3SM RA BR
     FM200600 02012KT P6SM VCSH OVC050
     FM200900 04012KT P6SM BKN050
     FM202300 03009KT P6SM SCT045=



000
FTUS42 KGSP 192300
TAFCLT
TAF
KCLT 192340Z 2000/2024 02010KT 5SM -RA BR FEW009 OVC040
      TEMPO 2000/2003 2SM RA BR
     FM200600 02012KT P6SM VCSH OVC050
     FM200900 04012KT P6SM BKN050
     FM202300 03009KT P6SM SCT045=



000
FTUS42 KGSP 192300
TAFGSP
TAF
KGSP 192340Z 2000/2024 03011KT 6SM -RA BR OVC040
      TEMPO 2001/2004 3SM RA BR BKN025 OVC040
     FM200400 03013KT P6SM OVC040
     FM202100 05011KT P6SM SCT250=



000
FTUS42 KGSP 192300
TAFAVL
TAF
KAVL 192340Z 2000/2024 34005KT 6SM -RA BR OVC080
      TEMPO 2000/2003 4SM RA BR BKN050 OVC080
     FM200400 33003KT P6SM OVC060
     FM201500 36005KT P6SM SCT060
     FM202200 36004KT P6SM FEW250=



000
FTUS42 KGSP 192000 AAA
TAFCLT
TAF AMD
KCLT 192058Z 1921/2018 01010KT 3SM -RADZ BR BKN008 OVC020
      TEMPO 1921/1923 02012G20KT 2SM RA
     FM192300 03012KT 3SM -RA BR FEW006 BKN019 OVC035
     FM200100 04014G20KT 6SM -RA BR OVC025
     FM200600 04012G20KT P6SM VCSH BKN040
     FM201400 05010KT P6SM SCT080=



000
FTUS42 KGSP 191700 RRA
TAFGSP
TAF
KGSP 191742Z 1918/2018 03013G22KT 3SM -RADZ BR BKN008 OVC012
     FM192100 04013G22KT 5SM -RADZ OVC014
     FM200200 03012G25KT P6SM OVC025
     FM200700 03011G25KT P6SM BKN050
     FM201300 04012G25KT P6SM SCT080=



000
FTUS42 KGSP 191700 RRA
TAFCLT
TAF
KCLT 191742Z 1918/2018 03012G20KT 3SM -RADZ BR BKN006 OVC015
     FM192100 03012G20KT 3SM -RA BR FEW006 OVC014
     FM200100 04014G22KT 6SM -RA BR OVC025
     FM200600 04012G20KT P6SM VCSH BKN040
     FM201400 05010KT P6SM SCT080=



000
FTUS42 KGSP 191700 RRA
TAFAVL
TAF
KAVL 191742Z 1918/2018 36006KT P6SM -RA SCT035 OVC050
     FM192100 36012KT P6SM VCSH OVC035
     FM200300 35008KT P6SM BKN050
     FM201400 35012G20KT P6SM SKC=



000
FTUS42 KGSP 191600 AAB
TAFAVL
TAF AMD
KAVL 191612Z 1916/2012 36007KT P6SM -RA BKN028 OVC035
     FM191900 01011G18KT P6SM -RADZ OVC025
     FM192100 36012KT P6SM VCSH OVC035
     FM200300 35008KT P6SM BKN050=



000
FTUS42 KGSP 191500 AAA
TAFCLT
TAF AMD
KCLT 191501Z 1915/2012 03012G20KT 4SM -RADZ BR SCT006 OVC014
      TEMPO 1915/1917 2SM RADZ BR BKN006
     FM191700 03014G24KT 3SM -RA BR OVC014
     FM200100 04014G22KT 6SM -RA BR OVC035
     FM200600 04012G20KT P6SM VCSH BKN050=



000
FTUS42 KGSP 191300 AAA
TAFAVL
TAF AMD
KAVL 191306Z 1913/2012 36007KT 2SM -RADZ BR SCT020 OVC040
     FM191500 01011G18KT P6SM -RADZ OVC025
     FM192100 36012KT P6SM VCSH OVC035
     FM200300 35008KT P6SM BKN050=



000
FTUS42 KGSP 191200 AAA
TAFGSP
TAF AMD
KGSP 191244Z 1913/2012 03013G20KT 2SM -RADZ BR OVC007
     FM191600 04014G25KT P6SM -RA OVC015
     FM192300 04013G22KT P6SM VCSH OVC025
     FM200200 03012G21KT P6SM OVC040
     FM200700 03011G17KT P6SM BKN050=



000
FTUS42 KGSP 191100
TAFCLT
TAF
KCLT 191138Z 1912/2012 03012G18KT 4SM -RA BR OVC008
      TEMPO 1912/1915 3SM RA BR SCT008 OVC014
     FM191500 03014G24KT 3SM -RA BR OVC014
     FM200100 04014G22KT 6SM -RA BR OVC035
     FM200600 04012G20KT P6SM VCSH BKN050=



000
FTUS42 KGSP 191100
TAFGSP
TAF
KGSP 191138Z 1912/2012 03013G20KT 6SM -RADZ BR SCT009 OVC015
      TEMPO 1912/1915 4SM -RA BR OVC009
     FM191500 04014G25KT P6SM -RA OVC015
     FM192300 04013G22KT P6SM VCSH OVC025
     FM200200 03012G21KT P6SM OVC040
     FM200700 03011G17KT P6SM BKN050=



000
FTUS42 KGSP 191100
TAFAVL
TAF
KAVL 191138Z 1912/2012 36007KT 6SM -RADZ BR SCT020 OVC040
     FM191500 01011G18KT P6SM -RADZ OVC025
     FM192100 36012KT P6SM VCSH OVC035
     FM200300 35008KT P6SM BKN050=



000
FTUS42 KGSP 190800 AAB
TAFGSP
TAF AMD
KGSP 190857Z 1909/2006 03012G20KT 6SM RA BR SCT008 OVC035
      TEMPO 1910/1912 3SM RA BR OVC008
     FM191300 03014G25KT P6SM -RA OVC020
     FM191900 03015G26KT P6SM -RA OVC030
     FM200300 04013G22KT P6SM VCSH OVC015=



000
FTUS42 KGSP 190800 AAB
TAFCLT
TAF AMD
KCLT 190856Z 1909/2006 03012G20KT 4SM -RA BR SCT008 OVC013
      TEMPO 1909/1912 3SM RA BR BKN008 OVC012
     FM191300 03014G24KT 3SM RA BR OVC010
     FM191800 04015G26KT 6SM -RA BR OVC012
     FM200100 04014G22KT 5SM BR VCSH OVC015=



000
FTUS42 KGSP 190700 AAA
TAFCLT
TAF AMD
KCLT 190702Z 1907/2006 03011G17KT 5SM -RA BR SCT010 OVC035
     FM190800 03012G20KT 4SM RA BR SCT008 OVC013
      TEMPO 1908/1912 3SM RA BR BKN008 OVC012
     FM191300 03014G24KT 3SM RA BR OVC010
     FM191800 04015G26KT 6SM -RA BR OVC012
     FM200100 04014G22KT 5SM BR VCSH OVC015=



000
FTUS42 KGSP 190600 AAA
TAFGSP
TAF AMD
KGSP 190615Z 1906/2006 03012KT P6SM -RA BKN008 OVC040
     FM190800 03013G22KT 6SM RA BR SCT008 OVC020
      TEMPO 1908/1912 3SM RA BR OVC008
     FM191300 03014G25KT P6SM -RA OVC015
     FM191900 03015G26KT P6SM -RA OVC020
     FM200300 04013G22KT P6SM VCSH OVC015=



000
FTUS42 KGSP 190500
TAFCLT
TAF
KCLT 190535Z 1906/2006 03011KT 6SM -RA BR SCT020 OVC050
     FM190800 03012G20KT 4SM RA BR SCT008 OVC013
      TEMPO 1908/1912 3SM RA BR BKN008 OVC012
     FM191300 03014G24KT 3SM RA BR OVC010
     FM191800 04015G26KT 6SM -RA BR OVC012
     FM200100 04014G22KT 5SM BR VCSH OVC015=



000
FTUS42 KGSP 190500
TAFGSP
TAF
KGSP 190535Z 1906/2006 03012KT P6SM -RA SCT025 OVC080
     FM190800 03013G22KT 6SM RA BR SCT008 OVC020
      TEMPO 1908/1912 3SM RA BR OVC008
     FM191300 03014G25KT P6SM -RA OVC015
     FM191900 03015G26KT P6SM -RA OVC020
     FM200300 04013G22KT P6SM VCSH OVC015=



000
FTUS42 KGSP 190500
TAFAVL
TAF
KAVL 190535Z 1906/2006 36007KT 6SM -RA BR SCT025 OVC050
     FM191300 01011G17KT P6SM -RA SCT020 OVC040
     FM191700 01012G19KT P6SM -RA OVC025
     FM200200 35008KT P6SM OVC040=



000
FTUS42 KGSP 190400 AAC
TAFGSP
TAF AMD
KGSP 190400Z 1904/1924 02011KT 6SM RA BR SCT010 OVC070
     FM190600 02014G22KT P6SM RA OVC009
     FM191600 04015G26KT P6SM -RA OVC015
     FM191900 04014G24KT P6SM OVC015=



000
FTUS42 KGSP 190300 AAB
TAFCLT
TAF AMD
KCLT 190357Z 1904/1924 02011KT 6SM RA BR SCT025 OVC060
     FM190600 03012G19KT 6SM RA BR OVC007
     FM191400 03015G26KT 6SM RA BR OVC007
     FM191600 04015G26KT P6SM -RA OVC012
     FM191800 04013G22KT P6SM OVC012 PROB30 1920/1924 P6SM -RA
      OVC009=



000
FTUS42 KGSP 190200 AAA
TAFGSP
TAF AMD
KGSP 190209Z 1902/1924 02011KT 6SM RA BR SCT035 OVC070
     FM190400 02013G22KT P6SM RA OVC025
     FM190600 02014G24KT P6SM RA OVC009
     FM191600 04015G26KT P6SM -RA OVC015
     FM191900 04014G24KT P6SM OVC015=



000
FTUS42 KGSP 190200 AAB
TAFGSP
TAF AMD
KGSP 190209Z 1902/1924 02011KT 6SM RA BR SCT035 OVC070
     FM190400 02013G22KT P6SM RA OVC025
     FM190600 02014G24KT P6SM RA OVC009
     FM191600 04015G26KT P6SM -RA OVC015
     FM191900 04014G24KT P6SM OVC015=



000
FTUS42 KGSP 190100 AAA
TAFCLT
TAF AMD
KCLT 190158Z 1902/1924 02011KT 5SM RA BR OVC025
     FM190600 03012G19KT 6SM RA BR OVC007
     FM191400 03015G26KT 6SM RA BR OVC007
     FM191600 04015G26KT P6SM -RA OVC012
     FM191800 04013G22KT P6SM OVC012 PROB30 1920/1924 P6SM -RA
      OVC009=



000
FTUS42 KGSP 182300
TAFAVL
TAF
KAVL 182334Z 1900/1924 35006KT 6SM -RA BR OVC060
     FM190600 35007KT 6SM -RA BR OVC027
     FM191500 35009KT P6SM OVC027
     FM192000 14010KT P6SM OVC025=



000
FTUS42 KGSP 182300
TAFCLT
TAF
KCLT 182334Z 1900/1924 01009KT 5SM RA BR SCT040 OVC070
     FM190200 03011KT 6SM RA BR OVC025
     FM190600 03012G19KT 6SM RA BR OVC007
     FM191400 03015G26KT 6SM RA BR OVC007
     FM191600 04015G26KT P6SM -RA OVC012
     FM191800 04013G22KT P6SM OVC012 PROB30 1920/1924 P6SM -RA
      OVC009=



000
FTUS42 KGSP 182300
TAFGSP
TAF
KGSP 182334Z 1900/1924 02011KT 6SM RA BR SCT035 OVC070
     FM190200 02013G22KT P6SM RA OVC025
     FM190600 02014G24KT P6SM RA OVC009
     FM191600 04015G26KT P6SM -RA OVC015
     FM191900 04014G24KT P6SM OVC015=



000
FTUS42 KGSP 182100 AAA
TAFCLT
TAF AMD
KCLT 182104Z 1821/1918 03008KT P6SM OVC120
     FM182300 02008KT 6SM -RA BR BKN040 OVC060
     FM190200 04012G18KT 6SM RA BR OVC020
     FM190500 03014G24KT 6SM RA BR OVC006
     FM191300 03015G24KT P6SM -RA OVC006=



000
FTUS42 KGSP 181900 AAA
TAFGSP
TAF AMD
KGSP 181954Z 1820/1918 04010KT P6SM -RA OVC080
     FM190200 03015G24KT 5SM RA BR OVC007
     FM191400 03018G29KT P6SM -RA OVC007=



000
FTUS42 KGSP 181700
TAFGSP
TAF
KGSP 181736Z 1818/1918 04010KT P6SM SCT070 OVC150
     FM182100 04010KT P6SM -RA OVC030
     FM190200 03015G24KT 5SM RA BR OVC007
     FM191400 03018G29KT P6SM -RA OVC007=



000
FTUS42 KGSP 181700
TAFAVL
TAF
KAVL 181736Z 1818/1918 36003KT P6SM OVC110
     FM182100 01007KT P6SM -RA OVC050
     FM190200 36007KT 4SM RA BR OVC018
     FM191300 36010KT P6SM -RA OVC008=



000
FTUS42 KGSP 181700
TAFCLT
TAF
KCLT 181736Z 1818/1918 03008KT P6SM SCT040 OVC150
     FM182100 02008KT 6SM -RA BR OVC040
     FM190200 04012G18KT 6SM RA BR OVC020
     FM190500 03014G24KT 6SM RA BR OVC006
     FM191300 03015G24KT P6SM -RA OVC006=



000
FTUS42 KGSP 181500 AAA
TAFCLT
TAF AMD
KCLT 181515Z 1815/1912 03010KT P6SM SCT040 OVC140
     FM181800 05009KT P6SM VCSH OVC040
     FM190000 03012G18KT P6SM -RA OVC020
     FM190400 02013G21KT P6SM SHRA OVC007=



000
FTUS42 KGSP 181100
TAFAVL
TAF
KAVL 181133Z 1812/1912 12003KT P6SM SCT040 OVC200
     FM182000 VRB03KT P6SM -RA OVC025
     FM182300 35009KT 5SM RA BR OVC010
     FM190600 01006KT 4SM -RA BR OVC012=



000
FTUS42 KGSP 181100
TAFCLT
TAF
KCLT 181133Z 1812/1912 05007KT P6SM SCT050 OVC150
     FM182000 05009KT P6SM VCSH OVC040
     FM190000 03012G18KT P6SM -RA OVC020
     FM190400 02013G21KT P6SM SHRA OVC007=



000
FTUS42 KGSP 181100
TAFGSP
TAF
KGSP 181133Z 1812/1912 04008KT P6SM SCT045 OVC120
     FM182000 06010KT P6SM VCSH OVC025
     FM190100 03012G18KT P6SM SHRA OVC007
     FM190700 02013G22KT 4SM -RA BR OVC006=



000
FTUS42 KGSP 180800 AAA
TAFGSP
TAF AMD
KGSP 180859Z 1809/1906 03006KT P6SM SCT020 BKN040 OVC200
     FM181400 04009KT P6SM SCT045 OVC120
     FM182000 05010G18KT P6SM VCSH OVC035
     FM190000 04012G20KT P6SM -SHRA OVC015
     FM190300 03014G22KT P6SM SHRA OVC007=



000
FTUS42 KGSP 180800 AAA
TAFCLT
TAF AMD
KCLT 180847Z 1809/1906 06005KT P6SM OVC250
     FM180900 05006KT P6SM SCT020 OVC200
     FM181400 04008KT P6SM SCT045 OVC120
     FM182000 04010KT P6SM VCSH OVC040
     FM182300 03012G18KT P6SM -RA OVC020
     FM190300 02013G22KT P6SM SHRA OVC007=



000
FTUS42 KGSP 180500
TAFGSP
TAF
KGSP 180534Z 1806/1906 04005KT P6SM FEW060 BKN250
     FM181000 03007KT P6SM SCT020 OVC200
     FM181400 04009KT P6SM SCT050 OVC120
     FM182000 05010G18KT P6SM VCSH OVC035
     FM190000 04012G20KT P6SM -SHRA OVC015
     FM190300 03014G22KT P6SM SHRA OVC007=



000
FTUS42 KGSP 180500
TAFAVL
TAF
KAVL 180534Z 1806/1906 00000KT P6SM BKN250
     FM180900 VRB03KT P6SM FEW020 OVC200
     FM181600 16006KT P6SM SCT050 OVC100
     FM182300 36010KT P6SM -RA OVC035
     FM190200 35012KT 5SM SHRA BR OVC010=



000
FTUS42 KGSP 180500
TAFCLT
TAF
KCLT 180534Z 1806/1906 05006KT P6SM BKN250
     FM180900 05006KT P6SM SCT020 OVC200
     FM181400 04008KT P6SM SCT045 OVC120
     FM182000 04010KT P6SM VCSH OVC040
     FM182300 03012G18KT P6SM -RA OVC020
     FM190300 02013G22KT P6SM SHRA OVC007=



    US Dept of Commerce
    National Oceanic and Atmospheric Administration
    National Weather Service
    1325 East West Highway
    Silver Spring, MD 20910
    Page Author: NWS Internet Services Team
Disclaimer
Information Quality
Credits
Glossary
Privacy Policy
Freedom of Information Act (FOIA)
About Us
Career Opportunities